^^
Meteo Knjazevac Station Historical Data
Daily Summary for February 15, 2021 Units:  English    Metric   Both
Daily Weekly Monthly Yearly Custom
  High: Low: Average:
Temperature: 74.5 °F 46.6 °F 59 °F
Dew Point: 58.4 °F 44.6 °F 51.4 °F
Humidity: 95% 49% 78%
Wind Speed: 12mph 0mph 1.8mph
Wind Gust: 24mph - -
Wind- - South
Pressure: 29.93 in 29.84 in -
Precipitation: 0.02 in    
Historical Graphs
 
 
Tabular Data for February 15, 2021
Time Temperature Dew Point Pressure Wind Wind Speed Wind Gust Humidity Rainfall Rate (Hourly) solar Conditions
00:00 54.7 °F 48.6 °F 29.93 in Calm   3 mph 80% 0.00 in 0 W/m2
00:10 54.5 °F 48.5 °F 29.93 in West 1 mph 3 mph 80% 0.00 in 0 W/m2
00:20 54.1 °F 48.1 °F 29.93 in WNW 1 mph 3 mph 80% 0.00 in 0 W/m2
00:30 53.6 °F 48.6 °F 29.92 in West 2 mph 3 mph 83% 0.00 in 0 W/m2
00:40 53.2 °F 48.2 °F 29.92 in NNW 1 mph 3 mph 83% 0.00 in 0 W/m2
00:50 52.9 °F 47.9 °F 29.93 in Calm   2 mph 83% 0.00 in 0 W/m2
01:00 52.3 °F 47.7 °F 29.93 in Calm   2 mph 84% 0.00 in 0 W/m2
01:10 52 °F 47.3 °F 29.93 in Calm   2 mph 84% 0.00 in 0 W/m2
01:20 51.6 °F 47.3 °F 29.93 in Calm   3 mph 85% 0.00 in 0 W/m2
01:30 51.4 °F 47.1 °F 29.93 in WNW 1 mph 2 mph 85% 0.00 in 0 W/m2
01:40 51.1 °F 46.7 °F 29.92 in Calm   3 mph 85% 0.00 in 0 W/m2
01:50 50.7 °F 46.7 °F 29.92 in North 1 mph 3 mph 86% 0.00 in 0 W/m2
02:00 50.5 °F 46.5 °F 29.92 in Calm   3 mph 86% 0.00 in 0 W/m2
02:10 50.4 °F 46.9 °F 29.92 in Calm   3 mph 88% 0.00 in 0 W/m2
02:20 50.2 °F 46.8 °F 29.92 in NE 2 mph 4 mph 88% 0.00 in 0 W/m2
02:30 50.2 °F 46.8 °F 29.92 in Calm   4 mph 88% 0.00 in 0 W/m2
02:40 50 °F 46.6 °F 29.92 in NNE 1 mph 2 mph 88% 0.00 in 0 W/m2
02:50 49.3 °F 45.9 °F 29.92 in North 2 mph 2 mph 88% 0.00 in 0 W/m2
03:00 49.3 °F 46.2 °F 29.92 in NNE 2 mph 3 mph 89% 0.00 in 0 W/m2
03:10 49.3 °F 46.2 °F 29.93 in NNE 1 mph 3 mph 89% 0.00 in 0 W/m2
03:20 48.9 °F 46.1 °F 29.93 in NNE 1 mph 3 mph 90% 0.00 in 0 W/m2
03:30 48.9 °F 46.1 °F 29.93 in NE 2 mph 4 mph 90% 0.00 in 0 W/m2
03:40 48.7 °F 45.6 °F 29.92 in Calm   3 mph 89% 0.00 in 0 W/m2
03:50 48.4 °F 45.3 °F 29.92 in Calm   2 mph 89% 0.00 in 0 W/m2
04:00 47.8 °F 45 °F 29.92 in Calm   3 mph 90% 0.00 in 0 W/m2
04:10 47.8 °F 45.3 °F 29.92 in NW 1 mph 3 mph 91% 0.00 in 0 W/m2
04:20 47.3 °F 44.8 °F 29.92 in Calm   2 mph 91% 0.00 in 0 W/m2
04:30 47.3 °F 44.8 °F 29.92 in Calm   2 mph 91% 0.00 in 0 W/m2
04:40 47.1 °F 44.6 °F 29.92 in NW 1 mph 2 mph 91% 0.00 in 0 W/m2
04:50 47.1 °F 45.2 °F 29.92 in Calm   3 mph 93% 0.00 in 0 W/m2
05:00 46.9 °F 45 °F 29.92 in Calm   2 mph 93% 0.00 in 0 W/m2
05:10 46.9 °F 45 °F 29.92 in Calm   2 mph 93% 0.00 in 4 W/m2
05:20 46.6 °F 44.7 °F 29.92 in WNW 1 mph 3 mph 93% 0.00 in 9 W/m2
05:30 46.6 °F 44.9 °F 29.92 in West 2 mph 2 mph 94% 0.00 in 17 W/m2
05:40 46.8 °F 45.1 °F 29.92 in West 2 mph 4 mph 94% 0.00 in 24 W/m2
05:50 46.9 °F 45.6 °F 29.92 in Calm   3 mph 95% 0.00 in 36 W/m2
06:00 47.1 °F 45.8 °F 29.92 in NW 1 mph 2 mph 95% 0.00 in 50 W/m2
06:10 47.3 °F 45.9 °F 29.92 in WNW 1 mph 3 mph 95% 0.00 in 68 W/m2
06:20 47.7 °F 46.3 °F 29.92 in West 2 mph 4 mph 95% 0.00 in 82 W/m2
06:30 48 °F 46.7 °F 29.92 in West 1 mph 4 mph 95% 0.00 in 82 W/m2
06:40 48.4 °F 47 °F 29.92 in West 1 mph 3 mph 95% 0.00 in 101 W/m2
06:50 48.7 °F 47.4 °F 29.92 in WNW 1 mph 3 mph 95% 0.00 in 119 W/m2
07:00 49.1 °F 47.7 °F 29.92 in WSW 1 mph 2 mph 95% 0.00 in 179 W/m2
07:10 49.5 °F 48.1 °F 29.91 in West 1 mph 3 mph 95% 0.00 in 84 W/m2
07:20 49.8 °F 48.4 °F 29.91 in West 1 mph 2 mph 95% 0.00 in 313 W/m2
07:30 50.4 °F 49 °F 29.91 in Calm   2 mph 95% 0.00 in 343 W/m2
07:40 50.9 °F 49.5 °F 29.90 in West 1 mph 4 mph 95% 0.00 in 377 W/m2
07:50 51.5 °F 49.5 °F 29.90 in Calm   2 mph 93% 0.00 in 409 W/m2
08:00 52.4 °F 50.4 °F 29.90 in Calm   3 mph 93% 0.00 in 444 W/m2
08:10 53.4 °F 50.6 °F 29.89 in North 1 mph 3 mph 90% 0.00 in 481 W/m2
08:20 54.5 °F 51.7 °F 29.89 in SW 1 mph 3 mph 90% 0.00 in 516 W/m2
08:30 55.6 °F 52.4 °F 29.89 in NNW 3 mph 5 mph 89% 0.00 in 555 W/m2
08:40 57.2 °F 52.8 °F 29.89 in SE 1 mph 3 mph 85% 0.00 in 587 W/m2
08:50 58.9 °F 54.1 °F 29.89 in WNW 1 mph 2 mph 84% 0.00 in 615 W/m2
09:00 61.6 °F 55.3 °F 29.89 in Calm   7 mph 80% 0.00 in 613 W/m2
09:10 63.9 °F 55.4 °F 29.89 in NE 1 mph 6 mph 74% 0.00 in 669 W/m2
09:20 65.9 °F 56.6 °F 29.89 in NNE 2 mph 8 mph 72% 0.00 in 695 W/m2
09:30 67.3 °F 56 °F 29.89 in NE 1 mph 8 mph 67% 0.00 in 612 W/m2
09:40 68.4 °F 56.1 °F 29.88 in East 1 mph 6 mph 65% 0.00 in 607 W/m2
09:50 69.1 °F 54.6 °F 29.88 in East 1 mph 6 mph 60% 0.00 in 409 W/m2
10:00 69.1 °F 55.5 °F 29.88 in North 1 mph 6 mph 62% 0.00 in 525 W/m2
10:10 69.6 °F 54.7 °F 29.88 in ENE 1 mph 6 mph 59% 0.00 in 459 W/m2
10:20 69.8 °F 53.9 °F 29.88 in ESE 2 mph 6 mph 57% 0.00 in 642 W/m2
10:30 70.3 °F 54.4 °F 29.88 in East 3 mph 9 mph 57% 0.00 in 661 W/m2
10:40 70.7 °F 53.7 °F 29.88 in East 2 mph 9 mph 55% 0.00 in 403 W/m2
10:50 70.5 °F 53.6 °F 29.88 in NNE 5 mph 9 mph 55% 0.00 in 366 W/m2
11:00 70.3 °F 54.4 °F 29.88 in North 1 mph 9 mph 57% 0.00 in 447 W/m2
11:10 70.3 °F 54.4 °F 29.88 in West 2 mph 6 mph 57% 0.00 in 502 W/m2
11:20 70.9 °F 55.4 °F 29.88 in West 3 mph 7 mph 58% 0.00 in 913 W/m2
11:30 71.6 °F 53.6 °F 29.88 in SW 1 mph 6 mph 53% 0.00 in 420 W/m2
11:40 71.4 °F 53.4 °F 29.88 in WNW 2 mph 5 mph 53% 0.00 in 748 W/m2
11:50 71.6 °F 53.6 °F 29.88 in SW 2 mph 6 mph 53% 0.00 in 316 W/m2
12:00 71.1 °F 53.1 °F 29.87 in West 3 mph 7 mph 53% 0.00 in 353 W/m2
12:10 71.1 °F 54.1 °F 29.87 in WSW 3 mph 6 mph 55% 0.00 in 761 W/m2
12:20 71.5 °F 53.9 °F 29.87 in NW 2 mph 6 mph 54% 0.00 in 453 W/m2
12:30 71.4 °F 53.4 °F 29.87 in WNW 5 mph 8 mph 53% 0.00 in 508 W/m2
12:40 71.8 °F 53.7 °F 29.86 in WNW 5 mph 8 mph 53% 0.00 in 726 W/m2
12:50 72.5 °F 54.4 °F 29.86 in NNW 3 mph 7 mph 53% 0.00 in 856 W/m2
13:00 73.3 °F 55.1 °F 29.86 in WNW 2 mph 6 mph 53% 0.00 in 583 W/m2
13:10 73.9 °F 53.6 °F 29.85 in NW 2 mph 7 mph 49% 0.00 in 920 W/m2
13:20 74.5 °F 54.6 °F 29.85 in North 3 mph 7 mph 50% 0.00 in 804 W/m2
13:30 74.3 °F 56.1 °F 29.85 in NNE 5 mph 10 mph 53% 0.00 in 323 W/m2
13:40 73.7 °F 56.5 °F 29.85 in North 1 mph 10 mph 55% 0.00 in 348 W/m2
13:50 73.2 °F 55.5 °F 29.85 in North 2 mph 9 mph 54% 0.00 in 249 W/m2
14:00 72 °F 54.9 °F 29.85 in NE 2 mph 13 mph 55% 0.00 in 201 W/m2
14:10 71.4 °F 55.9 °F 29.85 in NNE 2 mph 10 mph 58% 0.00 in 220 W/m2
14:20 71.2 °F 55.7 °F 29.85 in NNE 2 mph 9 mph 58% 0.00 in 249 W/m2
14:30 71.1 °F 55.5 °F 29.85 in NNE 3 mph 6 mph 58% 0.00 in 213 W/m2
14:40 70.9 °F 56.3 °F 29.85 in North 5 mph 6 mph 60% 0.00 in 128 W/m2
14:50 69.9 °F 54.9 °F 29.85 in East 12 mph 19 mph 59% 0.00 in 55 W/m2
15:00 66 °F 55.6 °F 29.85 in ESE 12 mph 24 mph 69% 0.01 in 44 W/m2
15:10 63.7 °F 55.2 °F 29.86 in SE 7 mph 15 mph 74% 0.00 in 56 W/m2
15:20 62.4 °F 55.1 °F 29.85 in ESE 9 mph 20 mph 77% 0.00 in 73 W/m2
15:30 61.8 °F 55.2 °F 29.85 in East 8 mph 17 mph 79% 0.02 in 98 W/m2
15:40 61.9 °F 56.7 °F 29.86 in NNW 1 mph 6 mph 83% 0.00 in 147 W/m2
15:50 61.5 °F 56.6 °F 29.86 in NW 2 mph 5 mph 84% 0.00 in 183 W/m2
16:00 61.5 °F 56.3 °F 29.86 in NNE 3 mph 8 mph 83% 0.00 in 228 W/m2
16:10 61.7 °F 56.5 °F 29.86 in NNW 5 mph 8 mph 83% 0.00 in 220 W/m2
16:20 61.9 °F 57 °F 29.86 in North 3 mph 8 mph 84% 0.00 in 193 W/m2
16:30 61.6 °F 57.1 °F 29.86 in North 3 mph 7 mph 85% 0.00 in 194 W/m2
16:40 61.5 °F 57.3 °F 29.86 in North 1 mph 6 mph 86% 0.00 in 213 W/m2
16:50 61.6 °F 57.4 °F 29.86 in North 1 mph 3 mph 86% 0.00 in 187 W/m2
17:00 61.5 °F 57 °F 29.85 in Calm   2 mph 85% 0.00 in 190 W/m2
17:10 61.5 °F 57 °F 29.85 in NNE 2 mph 5 mph 85% 0.00 in 205 W/m2
17:20 61.9 °F 57.6 °F 29.85 in NNE 1 mph 5 mph 86% 0.00 in 145 W/m2
17:30 61.8 °F 57.6 °F 29.85 in NW 1 mph 4 mph 86% 0.00 in 189 W/m2
17:40 61.7 °F 57.1 °F 29.85 in SSE 1 mph 4 mph 85% 0.00 in 117 W/m2
17:50 61.9 °F 57.6 °F 29.84 in Calm   2 mph 86% 0.00 in 157 W/m2
18:00 62.2 °F 58 °F 29.84 in WSW 1 mph 2 mph 86% 0.00 in 246 W/m2
18:10 63 °F 58.4 °F 29.84 in West 1 mph 4 mph 85% 0.00 in 140 W/m2
Knjazevac, Serbia
Compliments of Weather Underground - 2 mb